createdAt,value
2022-11-20T00:03:59.197Z,100591.33
2022-11-20T00:09:03.731Z,100591.59
2022-11-20T00:14:08.115Z,100594.11
2022-11-20T00:19:10.936Z,100600.23
2022-11-20T00:24:13.876Z,100596.46
2022-11-20T00:29:16.753Z,100587.40
2022-11-20T00:34:20.044Z,100585.51
2022-11-20T00:39:23.221Z,100586.33
2022-11-20T00:44:27.567Z,100577.48
2022-11-20T00:49:33.280Z,100581.78
2022-11-20T00:54:36.231Z,100578.50
2022-11-20T00:59:39.300Z,100577.46
2022-11-20T01:04:43.091Z,100572.75
2022-11-20T01:09:47.409Z,100572.08
2022-11-20T01:14:50.185Z,100559.56
2022-11-20T01:19:53.102Z,100557.27
2022-11-20T01:24:57.657Z,100557.31
2022-11-20T01:30:02.738Z,100548.70
2022-11-20T01:35:06.703Z,100549.21
2022-11-20T01:40:12.163Z,100543.95
2022-11-20T01:46:06.767Z,100547.56
2022-11-20T01:51:27.483Z,100550.18
2022-11-20T01:56:32.371Z,100542.25
2022-11-20T02:01:35.533Z,100530.78
2022-11-20T02:06:47.092Z,100536.77
2022-11-20T02:11:50.655Z,100534.06
2022-11-20T02:16:54.857Z,100527.52
2022-11-20T02:22:29.652Z,100524.52
2022-11-20T02:27:32.934Z,100523.27
2022-11-20T02:32:36.852Z,100529.58
2022-11-20T02:37:41.066Z,100526.34
2022-11-20T02:42:43.894Z,100529.97
2022-11-20T02:47:48.178Z,100533.80
2022-11-20T02:52:51.475Z,100532.66
2022-11-20T02:57:56.053Z,100537.70
2022-11-20T03:02:58.879Z,100542.40
2022-11-20T03:08:01.706Z,100541.77
2022-11-20T03:13:04.930Z,100539.74
2022-11-20T03:18:07.740Z,100539.14
2022-11-20T03:23:11.242Z,100535.45
2022-11-20T03:28:16.213Z,100527.83
2022-11-20T03:33:19.147Z,100529.17
2022-11-20T03:38:21.941Z,100523.99
2022-11-20T03:43:24.858Z,100523.36
2022-11-20T03:48:27.735Z,100528.08
2022-11-20T03:53:30.653Z,100523.52
2022-11-20T03:58:36.916Z,100521.95
2022-11-20T04:03:40.498Z,100521.92
2022-11-20T04:08:43.435Z,100519.34
2022-11-20T04:13:52.263Z,100519.90
2022-11-20T04:18:56.606Z,100509.15
2022-11-20T04:24:00.210Z,100507.73
2022-11-20T04:29:03.250Z,100508.77
2022-11-20T04:34:07.577Z,100511.26
2022-11-20T04:39:16.377Z,100508.17
2022-11-20T04:44:19.178Z,100502.52
2022-11-20T04:49:22.332Z,100494.05
2022-11-20T04:54:25.548Z,100486.62
2022-11-20T04:59:30.669Z,100480.21
2022-11-20T05:04:34.216Z,100480.09
2022-11-20T05:09:36.995Z,100475.98
2022-11-20T05:14:40.772Z,100471.45
2022-11-20T05:19:44.109Z,100466.41
2022-11-20T05:24:47.176Z,100473.68
2022-11-20T05:29:50.057Z,100477.03
2022-11-20T05:34:53.549Z,100482.02
2022-11-20T05:39:56.340Z,100478.45
2022-11-20T05:45:00.192Z,100469.27
2022-11-20T05:50:03.284Z,100467.55
2022-11-20T05:55:07.098Z,100467.09
2022-11-20T06:00:11.349Z,100466.20
2022-11-20T06:05:14.411Z,100464.17
2022-11-20T06:10:17.767Z,100460.66
2022-11-20T06:15:21.105Z,100459.17
2022-11-20T06:20:24.612Z,100461.61
2022-11-20T06:25:28.027Z,100454.02
2022-11-20T06:30:31.679Z,100453.27
2022-11-20T06:35:35.284Z,100454.52
2022-11-20T06:40:42.286Z,100458.77
2022-11-20T06:45:45.118Z,100457.77
2022-11-20T06:50:48.063Z,100460.81
2022-11-20T06:55:51.397Z,100456.80
2022-11-20T07:00:54.886Z,100450.48
2022-11-20T07:05:59.678Z,100454.80
2022-11-20T07:11:05.945Z,100456.16
2022-11-20T07:16:09.330Z,100452.30
2022-11-20T07:21:12.760Z,100442.84
2022-11-20T07:26:15.616Z,100433.30
2022-11-20T07:31:19.719Z,100429.98
2022-11-20T07:36:23.825Z,100433.55
2022-11-20T07:41:26.632Z,100438.21
2022-11-20T07:46:29.474Z,100432.48
2022-11-20T07:51:32.729Z,100431.95
2022-11-20T07:56:35.545Z,100427.58
2022-11-20T08:01:39.931Z,100427.54
2022-11-20T08:06:43.048Z,100425.70
2022-11-20T08:12:04.609Z,100424.39
2022-11-20T08:17:07.392Z,100421.48
2022-11-20T08:22:10.190Z,100417.51
2022-11-20T08:27:13.077Z,100415.91
2022-11-20T08:32:15.947Z,100410.77
2022-11-20T08:37:20.042Z,100410.23
2022-11-20T08:42:23.772Z,100403.91
2022-11-20T08:47:26.578Z,100396.64
2022-11-20T08:52:29.443Z,100394.70
2022-11-20T08:57:34.661Z,100395.98
2022-11-20T09:02:37.551Z,100399.55
2022-11-20T09:07:42.209Z,100396.97
2022-11-20T09:12:49.876Z,100382.98
2022-11-20T09:17:59.291Z,100365.29
2022-11-20T09:23:02.098Z,100366.42
2022-11-20T09:28:05.164Z,100360.67
2022-11-20T09:33:09.289Z,100355.83
2022-11-20T09:38:12.199Z,100346.49
2022-11-20T09:43:34.942Z,100342.89
2022-11-20T09:49:12.429Z,100333.04
2022-11-20T09:54:19.120Z,100333.21
2022-11-20T09:59:42.096Z,100340.50
2022-11-20T10:04:50.720Z,100343.46
2022-11-20T10:09:57.427Z,100344.95
2022-11-20T10:15:32.171Z,100344.30
2022-11-20T10:20:41.222Z,100335.73
2022-11-20T10:25:57.402Z,100326.54
2022-11-20T10:31:14.497Z,100317.75
2022-11-20T10:36:29.494Z,100312.46
2022-11-20T10:41:40.044Z,100301.99
2022-11-20T10:46:45.372Z,100300.45
2022-11-20T10:51:54.302Z,100301.48
2022-11-20T10:57:15.103Z,100295.20
2022-11-20T11:02:23.196Z,100290.08
2022-11-20T11:07:35.177Z,100295.08
2022-11-20T11:12:51.961Z,100293.75
2022-11-20T11:17:54.901Z,100284.95
2022-11-20T11:23:00.556Z,100290.16
2022-11-20T11:28:26.025Z,100289.56
2022-11-20T11:33:34.601Z,100285.77
2022-11-20T11:38:42.265Z,100293.52
2022-11-20T11:44:22.194Z,100290.35
2022-11-20T11:49:25.580Z,100283.83
2022-11-20T11:55:10.247Z,100278.41
2022-11-20T12:00:22.046Z,100274.38
2022-11-20T12:05:30.235Z,100268.58
2022-11-20T12:10:47.156Z,100263.45
2022-11-20T12:15:51.058Z,100259.11
2022-11-20T12:21:26.056Z,100251.11
2022-11-20T12:26:58.270Z,100248.26
2022-11-20T12:32:07.927Z,100239.94
2022-11-20T12:37:56.418Z,100236.25
2022-11-20T12:43:44.046Z,100230.33
2022-11-20T12:49:12.339Z,100225.91
2022-11-20T12:54:37.077Z,100219.71
2022-11-20T13:00:11.902Z,100219.23
2022-11-20T13:06:03.061Z,100219.22
2022-11-20T13:11:32.676Z,100212.44
2022-11-20T13:17:13.832Z,100204.73
2022-11-20T13:22:28.663Z,100201.29
2022-11-20T13:27:33.129Z,100190.39
2022-11-20T13:32:36.199Z,100187.75
2022-11-20T13:37:39.154Z,100180.19
2022-11-20T13:42:47.321Z,100182.65
2022-11-20T13:47:51.586Z,100182.83
2022-11-20T13:53:08.238Z,100177.50
2022-11-20T13:58:54.868Z,100170.23
2022-11-20T14:04:06.429Z,100166.90
2022-11-20T14:09:25.923Z,100164.98
2022-11-20T14:14:30.641Z,100164.48
2022-11-20T14:19:38.010Z,100157.94
2022-11-20T14:24:40.932Z,100153.25
2022-11-20T14:29:43.804Z,100149.52
2022-11-20T14:34:49.139Z,100148.95
2022-11-20T14:39:54.917Z,100146.33
2022-11-20T14:44:59.742Z,100139.79
2022-11-20T14:50:07.212Z,100140.78
2022-11-20T14:55:16.837Z,100138.90
2022-11-20T15:00:22.407Z,100141.05
2022-11-20T15:05:45.740Z,100135.52
2022-11-20T15:10:50.012Z,100131.20
2022-11-20T15:15:56.102Z,100136.06
2022-11-20T15:21:02.655Z,100126.14
2022-11-20T15:26:15.388Z,100119.77
2022-11-20T15:31:23.788Z,100116.09
2022-11-20T15:36:26.693Z,100123.23
2022-11-20T15:41:29.608Z,100124.17
2022-11-20T15:46:40.928Z,100124.00
2022-11-20T15:51:49.659Z,100128.45
2022-11-20T15:56:55.366Z,100118.34
2022-11-20T16:01:58.210Z,100109.38
2022-11-20T16:07:02.441Z,100117.31
2022-11-20T16:12:05.619Z,100119.98
2022-11-20T16:17:09.450Z,100117.90
2022-11-20T16:22:12.423Z,100114.38
2022-11-20T16:27:15.348Z,100116.63
2022-11-20T16:32:18.185Z,100122.67
2022-11-20T16:37:20.969Z,100127.05
2022-11-20T16:42:23.877Z,100125.66
2022-11-20T16:47:26.690Z,100118.92
2022-11-20T16:52:31.235Z,100108.11
2022-11-20T16:57:36.333Z,100109.44
2022-11-20T17:02:39.162Z,100105.66
2022-11-20T17:07:42.044Z,100108.80
2022-11-20T17:12:46.020Z,100106.04
2022-11-20T17:17:48.827Z,100105.45
2022-11-20T17:22:52.081Z,100100.91
2022-11-20T17:27:54.914Z,100107.89
2022-11-20T17:32:59.013Z,100105.85
2022-11-20T17:38:02.985Z,100097.24
2022-11-20T17:43:06.022Z,100089.31
2022-11-20T17:48:09.388Z,100086.44
2022-11-20T17:53:12.731Z,100073.31
2022-11-20T17:58:15.531Z,100063.23
2022-11-20T18:03:38.460Z,100048.21
2022-11-20T18:08:41.849Z,100041.27
2022-11-20T18:14:04.932Z,100033.55
2022-11-20T18:19:07.781Z,100028.42
2022-11-20T18:24:10.972Z,100021.41
2022-11-20T18:29:14.115Z,100020.51
2022-11-20T18:34:17.463Z,100015.48
2022-11-20T18:39:24.259Z,100016.91
2022-11-20T18:44:48.670Z,100016.51
2022-11-20T18:49:53.530Z,100020.02
2022-11-20T18:54:56.469Z,100015.12
2022-11-20T19:00:08.471Z,100016.80
2022-11-20T19:05:13.962Z,100016.67
2022-11-20T19:10:20.432Z,100018.46
2022-11-20T19:15:24.873Z,100015.70
2022-11-20T19:20:27.812Z,100001.06
2022-11-20T19:25:37.905Z,99993.65
2022-11-20T19:30:41.810Z,99993.64
2022-11-20T19:35:44.748Z,99993.86
2022-11-20T19:40:47.608Z,99989.30
2022-11-20T19:45:50.477Z,99983.70
2022-11-20T19:50:53.289Z,99978.18
2022-11-20T19:55:57.987Z,99983.89
2022-11-20T20:01:10.817Z,99973.95
2022-11-20T20:06:19.216Z,99973.85
2022-11-20T20:11:23.281Z,99963.46
2022-11-20T20:16:26.671Z,99958.91
2022-11-20T20:21:30.720Z,99963.02
2022-11-20T20:26:33.655Z,99959.91
2022-11-20T20:31:36.631Z,99956.57
2022-11-20T20:36:39.433Z,99963.39
2022-11-20T20:41:42.386Z,99961.11
2022-11-20T20:46:45.279Z,99960.25
2022-11-20T20:51:48.071Z,99958.71
2022-11-20T20:56:51.840Z,99960.27
2022-11-20T21:01:54.873Z,99957.79
2022-11-20T21:06:59.602Z,99954.45
2022-11-20T21:12:02.568Z,99950.36
2022-11-20T21:17:05.363Z,99954.84
2022-11-20T21:22:08.837Z,99953.75
2022-11-20T21:27:11.660Z,99957.63
2022-11-20T21:32:14.502Z,99953.63
2022-11-20T21:37:18.231Z,99947.47
2022-11-20T21:42:21.512Z,99951.01
2022-11-20T21:47:24.661Z,99950.08
2022-11-20T21:52:27.403Z,99945.51
2022-11-20T21:57:32.915Z,99940.06
2022-11-20T22:02:35.690Z,99953.01
2022-11-20T22:07:38.498Z,99946.43
2022-11-20T22:12:41.559Z,99945.73
2022-11-20T22:18:02.999Z,99955.23
2022-11-20T22:23:05.984Z,99957.11
2022-11-20T22:28:16.573Z,99950.41
2022-11-20T22:33:19.957Z,99944.21
2022-11-20T22:38:29.347Z,99938.71
2022-11-20T22:43:32.634Z,99933.73
2022-11-20T22:48:37.481Z,99930.66
2022-11-20T22:53:41.614Z,99933.84
2022-11-20T22:58:47.021Z,99932.56
2022-11-20T23:04:05.244Z,99934.17
2022-11-20T23:09:09.618Z,99944.17
2022-11-20T23:14:13.771Z,99944.08
2022-11-20T23:19:17.051Z,99944.84
2022-11-20T23:24:21.058Z,99948.10
2022-11-20T23:29:23.837Z,99952.48
2022-11-20T23:34:27.019Z,99954.44
2022-11-20T23:39:30.099Z,99954.36
2022-11-20T23:44:32.975Z,99947.41
2022-11-20T23:49:35.836Z,99947.78
2022-11-20T23:54:38.610Z,99950.02
2022-11-20T23:59:41.452Z,99950.16
